PWSweather.com
Personal Weather Stations
Station Observations
KMOCREVE3
Whispering Hills, Creve Coeur, MO 63146

Whispering HillsCreve Coeur, MO 63146

Lat: 38.68, Lon: -90.463

Elevation: 530

Station Type: Vantage Vue

Latest ConditionsUpdated 11:10:01 PM CST Friday, Feb 27, 2015
Currently Today's Max Today's Min Today's Average
Temperature 15.6°F-9.1°C 21.3°F-5.9°C 3.4°F-15.9°C 12.3°F-10.9°C
Dew Point 4.9°F-15.1°C 4.9°F-15.1°C -3.2°F-19.6°C 0.9°F-17.3°C
Winds Calm Calm 3.0 mph NW4.8 kmh NW - 0.7 mph 1.1 kmh
Wind Gusts 1.0 mph1.6 kmh 8.0 mph12.9 kmh - -
Humidity 62% 75% 44% 60%
Pressure 30.69 in1039.3 mb 30.75 in1041.3 mb 30.59 in1035.9 mb -
Hour Temp Dew Point Humidity Winds Wind Gusts Pressure Precip Precip Rate Daily Precip Total
11:10 PM 15.6°F-9.1°C 4.9°F-15.1°C 62% Calm Calm 1.0 mph1.6 kmh 30.69 in1039.3 mb 0.00 in0.0 mm 0.00 in/hr0.0 mm/hr 0.00 in0.0 mm
11:00 PM 15.6°F-9.1°C 4.5°F-15.3°C 61% Calm Calm 3.0 mph4.8 kmh 30.69 in1039.3 mb 0.00 in0.0 mm 0.00 in/hr0.0 mm/hr 0.00 in0.0 mm
10:50 PM 15.5°F-9.2°C 4.1°F-15.5°C 60% Calm Calm 1.0 mph1.6 kmh 30.70 in1039.6 mb 0.00 in0.0 mm 0.00 in/hr0.0 mm/hr 0.00 in0.0 mm
10:40 PM 15.6°F-9.1°C 3.8°F-15.7°C 59% Calm Calm 1.0 mph1.6 kmh 30.70 in1039.6 mb 0.00 in0.0 mm 0.00 in/hr0.0 mm/hr 0.00 in0.0 mm
10:30 PM 15.7°F-9.1°C 3.9°F-15.6°C 59% Calm Calm 1.0 mph1.6 kmh 30.70 in1039.6 mb 0.00 in0.0 mm 0.00 in/hr0.0 mm/hr 0.00 in0.0 mm
10:20 PM 15.8°F-9.0°C 4.4°F-15.3°C 60% Calm Calm 3.0 mph4.8 kmh 30.70 in1039.6 mb 0.00 in0.0 mm 0.00 in/hr0.0 mm/hr 0.00 in0.0 mm
10:10 PM 15.8°F-9.0°C 4.0°F-15.6°C 59% Calm Calm 1.0 mph1.6 kmh 30.70 in1039.6 mb 0.00 in0.0 mm 0.00 in/hr0.0 mm/hr 0.00 in0.0 mm
10:00 PM 15.9°F-8.9°C 4.4°F-15.3°C 60% Calm Calm 2.0 mph3.2 kmh 30.70 in1039.6 mb 0.00 in0.0 mm 0.00 in/hr0.0 mm/hr 0.00 in0.0 mm
09:50 PM 16.0°F-8.9°C 4.5°F-15.3°C 60% Calm Calm 1.0 mph1.6 kmh 30.71 in1040.0 mb 0.00 in0.0 mm 0.00 in/hr0.0 mm/hr 0.00 in0.0 mm
09:40 PM 16.0°F-8.9°C 4.5°F-15.3°C 60% Calm Calm 1.0 mph1.6 kmh 30.70 in1039.6 mb 0.00 in0.0 mm 0.00 in/hr0.0 mm/hr 0.00 in0.0 mm
09:30 PM 16.1°F-8.8°C 4.3°F-15.4°C 59% Calm Calm 1.0 mph1.6 kmh 30.71 in1040.0 mb 0.00 in0.0 mm 0.00 in/hr0.0 mm/hr 0.00 in0.0 mm
09:20 PM 16.3°F-8.7°C 4.1°F-15.5°C 58% Calm Calm 2.0 mph3.2 kmh 30.71 in1040.0 mb 0.00 in0.0 mm 0.00 in/hr0.0 mm/hr 0.00 in0.0 mm
09:10 PM 16.2°F-8.8°C 4.0°F-15.6°C 58% Calm Calm 4.0 mph6.4 kmh 30.71 in1040.0 mb 0.00 in0.0 mm 0.00 in/hr0.0 mm/hr 0.00 in0.0 mm
09:00 PM 16.2°F-8.8°C 4.4°F-15.3°C 59% Calm Calm 1.0 mph1.6 kmh 30.71 in1040.0 mb 0.00 in0.0 mm 0.00 in/hr0.0 mm/hr 0.00 in0.0 mm
08:50 PM 16.2°F-8.8°C 4.0°F-15.6°C 58% Calm Calm 1.0 mph1.6 kmh 30.71 in1040.0 mb 0.00 in0.0 mm 0.00 in/hr0.0 mm/hr 0.00 in0.0 mm
08:40 PM 16.2°F-8.8°C 3.2°F-16.0°C 56% Calm Calm 1.0 mph1.6 kmh 30.71 in1040.0 mb 0.00 in0.0 mm 0.00 in/hr0.0 mm/hr 0.00 in0.0 mm
08:30 PM 16.1°F-8.8°C 3.1°F-16.1°C 56% Calm Calm 2.0 mph3.2 kmh 30.70 in1039.6 mb 0.00 in0.0 mm 0.00 in/hr0.0 mm/hr 0.00 in0.0 mm
08:20 PM 16.1°F-8.8°C 2.7°F-16.3°C 55% Calm Calm 1.0 mph1.6 kmh 30.70 in1039.6 mb 0.00 in0.0 mm 0.00 in/hr0.0 mm/hr 0.00 in0.0 mm
08:10 PM 16.1°F-8.8°C 2.7°F-16.3°C 55% Calm Calm 1.0 mph1.6 kmh 30.70 in1039.6 mb 0.00 in0.0 mm 0.00 in/hr0.0 mm/hr 0.00 in0.0 mm
08:00 PM 16.2°F-8.8°C 2.4°F-16.4°C 54% Calm Calm 2.0 mph3.2 kmh 30.70 in1039.6 mb 0.00 in0.0 mm 0.00 in/hr0.0 mm/hr 0.00 in0.0 mm
07:50 PM 16.4°F-8.7°C 3.0°F-16.1°C 55% Calm Calm 1.0 mph1.6 kmh 30.71 in1040.0 mb 0.00 in0.0 mm 0.00 in/hr0.0 mm/hr 0.00 in0.0 mm
07:40 PM 16.6°F-8.6°C 2.8°F-16.2°C 54% Calm Calm 1.0 mph1.6 kmh 30.71 in1040.0 mb 0.00 in0.0 mm 0.00 in/hr0.0 mm/hr 0.00 in0.0 mm
07:30 PM 16.6°F-8.6°C 2.8°F-16.2°C 54% Calm Calm 1.0 mph1.6 kmh 30.71 in1040.0 mb 0.00 in0.0 mm 0.00 in/hr0.0 mm/hr 0.00 in0.0 mm
07:20 PM 16.7°F-8.5°C 3.3°F-15.9°C 55% Calm Calm 1.0 mph1.6 kmh 30.70 in1039.6 mb 0.00 in0.0 mm 0.00 in/hr0.0 mm/hr 0.00 in0.0 mm
07:10 PM 16.7°F-8.5°C 2.9°F-16.2°C 54% Calm Calm 1.0 mph1.6 kmh 30.70 in1039.6 mb 0.00 in0.0 mm 0.00 in/hr0.0 mm/hr 0.00 in0.0 mm
07:00 PM 16.9°F-8.4°C 2.7°F-16.3°C 53% Calm Calm 1.0 mph1.6 kmh 30.70 in1039.6 mb 0.00 in0.0 mm 0.00 in/hr0.0 mm/hr 0.00 in0.0 mm
06:50 PM 17.1°F-8.3°C 2.1°F-16.6°C 51% Calm Calm 2.0 mph3.2 kmh 30.70 in1039.6 mb 0.00 in0.0 mm 0.00 in/hr0.0 mm/hr 0.00 in0.0 mm
06:40 PM 17.3°F-8.2°C 1.8°F-16.8°C 50% Calm Calm 1.0 mph1.6 kmh 30.69 in1039.3 mb 0.00 in0.0 mm 0.00 in/hr0.0 mm/hr 0.00 in0.0 mm
06:30 PM 17.6°F-8.0°C 2.1°F-16.6°C 50% Calm Calm 2.0 mph3.2 kmh 30.69 in1039.3 mb 0.00 in0.0 mm 0.00 in/hr0.0 mm/hr 0.00 in0.0 mm
06:20 PM 17.6°F-8.0°C 2.9°F-16.2°C 52% Calm Calm 1.0 mph1.6 kmh 30.69 in1039.3 mb 0.00 in0.0 mm 0.00 in/hr0.0 mm/hr 0.00 in0.0 mm
06:10 PM 17.6°F-8.0°C 2.9°F-16.2°C 52% Calm Calm 2.0 mph3.2 kmh 30.69 in1039.3 mb 0.00 in0.0 mm 0.00 in/hr0.0 mm/hr 0.00 in0.0 mm
06:00 PM 17.7°F-7.9°C 3.4°F-15.9°C 53% Calm Calm 2.0 mph3.2 kmh 30.69 in1039.3 mb 0.00 in0.0 mm 0.00 in/hr0.0 mm/hr 0.00 in0.0 mm
05:50 PM 17.9°F-7.8°C 2.8°F-16.2°C 51% Calm Calm 2.0 mph3.2 kmh 30.68 in1038.9 mb 0.00 in0.0 mm 0.00 in/hr0.0 mm/hr 0.00 in0.0 mm
05:40 PM 18.1°F-7.7°C 3.4°F-15.9°C 52% Calm Calm 1.0 mph1.6 kmh 30.68 in1038.9 mb 0.00 in0.0 mm 0.00 in/hr0.0 mm/hr 0.00 in0.0 mm
05:30 PM 18.2°F-7.7°C 2.2°F-16.6°C 49% 1.0 mph NW1.6 kmh NW 2.0 mph3.2 kmh 30.68 in1038.9 mb 0.00 in0.0 mm 0.00 in/hr0.0 mm/hr 0.00 in0.0 mm
05:20 PM 18.4°F-7.6°C 2.4°F-16.4°C 49% Calm Calm 1.0 mph1.6 kmh 30.68 in1038.9 mb 0.00 in0.0 mm 0.00 in/hr0.0 mm/hr 0.00 in0.0 mm
05:10 PM 18.4°F-7.6°C 2.0°F-16.7°C 48% 1.0 mph NW1.6 kmh NW 3.0 mph4.8 kmh 30.68 in1038.9 mb 0.00 in0.0 mm 0.00 in/hr0.0 mm/hr 0.00 in0.0 mm
05:00 PM 18.5°F-7.5°C 2.0°F-16.7°C 48% Calm Calm 1.0 mph1.6 kmh 30.68 in1038.9 mb 0.00 in0.0 mm 0.00 in/hr0.0 mm/hr 0.00 in0.0 mm
04:50 PM 18.7°F-7.4°C 2.7°F-16.3°C 49% 1.0 mph NW1.6 kmh NW 4.0 mph6.4 kmh 30.68 in1038.9 mb 0.00 in0.0 mm 0.00 in/hr0.0 mm/hr 0.00 in0.0 mm
04:40 PM 19.2°F-7.1°C 2.2°F-16.6°C 47% 1.0 mph NW1.6 kmh NW 3.0 mph4.8 kmh 30.67 in1038.6 mb 0.00 in0.0 mm 0.00 in/hr0.0 mm/hr 0.00 in0.0 mm
04:30 PM 19.1°F-7.2°C 1.7°F-16.8°C 46% 1.0 mph NW1.6 kmh NW 8.0 mph12.9 kmh 30.67 in1038.6 mb 0.00 in0.0 mm 0.00 in/hr0.0 mm/hr 0.00 in0.0 mm
04:20 PM 19.8°F-6.8°C 1.8°F-16.8°C 45% 1.0 mph NW1.6 kmh NW 4.0 mph6.4 kmh 30.67 in1038.6 mb 0.00 in0.0 mm 0.00 in/hr0.0 mm/hr 0.00 in0.0 mm
04:10 PM 20.5°F-6.4°C 3.4°F-15.9°C 47% 1.0 mph NW1.6 kmh NW 2.0 mph3.2 kmh 30.67 in1038.6 mb 0.00 in0.0 mm 0.00 in/hr0.0 mm/hr 0.00 in0.0 mm
04:00 PM 20.4°F-6.4°C 2.9°F-16.2°C 46% 2.0 mph NW3.2 kmh NW 5.0 mph8.0 kmh 30.68 in1038.9 mb 0.00 in0.0 mm 0.00 in/hr0.0 mm/hr 0.00 in0.0 mm
03:50 PM 20.5°F-6.4°C 3.4°F-15.9°C 47% 2.0 mph NW3.2 kmh NW 4.0 mph6.4 kmh 30.67 in1038.6 mb 0.00 in0.0 mm 0.00 in/hr0.0 mm/hr 0.00 in0.0 mm
03:40 PM 20.6°F-6.3°C 4.0°F-15.6°C 48% 2.0 mph NW3.2 kmh NW 6.0 mph9.7 kmh 30.68 in1038.9 mb 0.00 in0.0 mm 0.00 in/hr0.0 mm/hr 0.00 in0.0 mm
03:30 PM 20.6°F-6.3°C 3.5°F-15.8°C 47% 2.0 mph NW3.2 kmh NW 5.0 mph8.0 kmh 30.68 in1038.9 mb 0.00 in0.0 mm 0.00 in/hr0.0 mm/hr 0.00 in0.0 mm
03:20 PM 20.7°F-6.3°C 3.2°F-16.0°C 46% 2.0 mph NW3.2 kmh NW 6.0 mph9.7 kmh 30.68 in1038.9 mb 0.00 in0.0 mm 0.00 in/hr0.0 mm/hr 0.00 in0.0 mm
03:10 PM 21.3°F-5.9°C 2.7°F-16.3°C 44% 1.0 mph ESE1.6 kmh ESE 7.0 mph11.3 kmh 30.68 in1038.9 mb 0.00 in0.0 mm 0.00 in/hr0.0 mm/hr 0.00 in0.0 mm
03:00 PM 20.3°F-6.5°C 4.2°F-15.4°C 49% 1.0 mph NW1.6 kmh NW 3.0 mph4.8 kmh 30.68 in1038.9 mb 0.00 in0.0 mm 0.00 in/hr0.0 mm/hr 0.00 in0.0 mm
02:50 PM 19.9°F-6.7°C 3.8°F-15.7°C 49% 2.0 mph NW3.2 kmh NW 5.0 mph8.0 kmh 30.68 in1038.9 mb 0.00 in0.0 mm 0.00 in/hr0.0 mm/hr 0.00 in0.0 mm
02:40 PM 20.5°F-6.4°C 4.3°F-15.4°C 49% 2.0 mph NNW3.2 kmh NNW 6.0 mph9.7 kmh 30.68 in1038.9 mb 0.00 in0.0 mm 0.00 in/hr0.0 mm/hr 0.00 in0.0 mm
02:30 PM 19.7°F-6.8°C 3.2°F-16.0°C 48% 1.0 mph NW1.6 kmh NW 5.0 mph8.0 kmh 30.68 in1038.9 mb 0.00 in0.0 mm 0.00 in/hr0.0 mm/hr 0.00 in0.0 mm
02:20 PM 19.2°F-7.1°C 3.1°F-16.1°C 49% 2.0 mph NW3.2 kmh NW 4.0 mph6.4 kmh 30.68 in1038.9 mb 0.00 in0.0 mm 0.00 in/hr0.0 mm/hr 0.00 in0.0 mm
02:10 PM 19.6°F-6.9°C 3.5°F-15.8°C 49% 2.0 mph NW3.2 kmh NW 4.0 mph6.4 kmh 30.68 in1038.9 mb 0.00 in0.0 mm 0.00 in/hr0.0 mm/hr 0.00 in0.0 mm
02:00 PM 18.8°F-7.3°C 2.3°F-16.5°C 48% 2.0 mph NW3.2 kmh NW 5.0 mph8.0 kmh 30.68 in1038.9 mb 0.00 in0.0 mm 0.00 in/hr0.0 mm/hr 0.00 in0.0 mm
01:50 PM 18.8°F-7.3°C 3.6°F-15.8°C 51% 2.0 mph NW3.2 kmh NW 7.0 mph11.3 kmh 30.69 in1039.3 mb 0.00 in0.0 mm 0.00 in/hr0.0 mm/hr 0.00 in0.0 mm
01:40 PM 17.7°F-7.9°C 1.3°F-17.1°C 48% 3.0 mph NW4.8 kmh NW 6.0 mph9.7 kmh 30.69 in1039.3 mb 0.00 in0.0 mm 0.00 in/hr0.0 mm/hr 0.00 in0.0 mm
01:30 PM 18.3°F-7.6°C 1.9°F-16.7°C 48% 2.0 mph NW3.2 kmh NW 6.0 mph9.7 kmh 30.70 in1039.6 mb 0.00 in0.0 mm 0.00 in/hr0.0 mm/hr 0.00 in0.0 mm
01:20 PM 18.3°F-7.6°C 2.7°F-16.3°C 50% 1.0 mph NW1.6 kmh NW 8.0 mph12.9 kmh 30.70 in1039.6 mb 0.00 in0.0 mm 0.00 in/hr0.0 mm/hr 0.00 in0.0 mm
01:10 PM 18.4°F-7.6°C 4.5°F-15.3°C 54% 1.0 mph NW1.6 kmh NW 5.0 mph8.0 kmh 30.70 in1039.6 mb 0.00 in0.0 mm 0.00 in/hr0.0 mm/hr 0.00 in0.0 mm
01:00 PM 17.9°F-7.8°C 2.8°F-16.2°C 51% 1.0 mph NW1.6 kmh NW 5.0 mph8.0 kmh 30.71 in1040.0 mb 0.00 in0.0 mm 0.00 in/hr0.0 mm/hr 0.00 in0.0 mm
12:50 PM 17.5°F-8.1°C 3.7°F-15.7°C 54% 1.0 mph NW1.6 kmh NW 4.0 mph6.4 kmh 30.70 in1039.6 mb 0.00 in0.0 mm 0.00 in/hr0.0 mm/hr 0.00 in0.0 mm
12:40 PM 17.1°F-8.3°C 4.5°F-15.3°C 57% 1.0 mph NW1.6 kmh NW 4.0 mph6.4 kmh 30.71 in1040.0 mb 0.00 in0.0 mm 0.00 in/hr0.0 mm/hr 0.00 in0.0 mm
12:30 PM 17.1°F-8.3°C 3.3°F-15.9°C 54% 2.0 mph NW3.2 kmh NW 6.0 mph9.7 kmh 30.71 in1040.0 mb 0.00 in0.0 mm 0.00 in/hr0.0 mm/hr 0.00 in0.0 mm
12:20 PM 15.9°F-8.9°C 2.6°F-16.3°C 55% 2.0 mph NW3.2 kmh NW 5.0 mph8.0 kmh 30.71 in1040.0 mb 0.00 in0.0 mm 0.00 in/hr0.0 mm/hr 0.00 in0.0 mm
12:10 PM 15.8°F-9.0°C 2.9°F-16.2°C 56% 1.0 mph NW1.6 kmh NW 5.0 mph8.0 kmh 30.71 in1040.0 mb 0.00 in0.0 mm 0.00 in/hr0.0 mm/hr 0.00 in0.0 mm
12:00 PM 15.1°F-9.4°C 3.0°F-16.1°C 58% 2.0 mph NW3.2 kmh NW 5.0 mph8.0 kmh 30.72 in1040.3 mb 0.00 in0.0 mm 0.00 in/hr0.0 mm/hr 0.00 in0.0 mm
11:50 AM 14.5°F-9.7°C 1.6°F-16.9°C 56% 2.0 mph NW3.2 kmh NW 5.0 mph8.0 kmh 30.72 in1040.3 mb 0.00 in0.0 mm 0.00 in/hr0.0 mm/hr 0.00 in0.0 mm
11:40 AM 14.3°F-9.8°C 0.7°F-17.4°C 54% 2.0 mph NW3.2 kmh NW 6.0 mph9.7 kmh 30.73 in1040.6 mb 0.00 in0.0 mm 0.00 in/hr0.0 mm/hr 0.00 in0.0 mm
11:30 AM 14.0°F-10.0°C 0.8°F-17.3°C 55% 1.0 mph NW1.6 kmh NW 5.0 mph8.0 kmh 30.73 in1040.6 mb 0.00 in0.0 mm 0.00 in/hr0.0 mm/hr 0.00 in0.0 mm
11:20 AM 13.7°F-10.2°C 0.5°F-17.5°C 55% 1.0 mph NW1.6 kmh NW 4.0 mph6.4 kmh 30.73 in1040.6 mb 0.00 in0.0 mm 0.00 in/hr0.0 mm/hr 0.00 in0.0 mm
11:10 AM 13.0°F-10.6°C 0.6°F-17.4°C 57% 2.0 mph NW3.2 kmh NW 5.0 mph8.0 kmh 30.73 in1040.6 mb 0.00 in0.0 mm 0.00 in/hr0.0 mm/hr 0.00 in0.0 mm
11:00 AM 12.6°F-10.8°C 0.2°F-17.7°C 57% 2.0 mph NW3.2 kmh NW 5.0 mph8.0 kmh 30.73 in1040.6 mb 0.00 in0.0 mm 0.00 in/hr0.0 mm/hr 0.00 in0.0 mm
10:50 AM 12.6°F-10.8°C 1.0°F-17.2°C 59% 1.0 mph NW1.6 kmh NW 5.0 mph8.0 kmh 30.73 in1040.6 mb 0.00 in0.0 mm 0.00 in/hr0.0 mm/hr 0.00 in0.0 mm
10:40 AM 11.9°F-11.2°C 0.3°F-17.6°C 59% 2.0 mph NW3.2 kmh NW 5.0 mph8.0 kmh 30.73 in1040.6 mb 0.00 in0.0 mm 0.00 in/hr0.0 mm/hr 0.00 in0.0 mm
10:30 AM 11.4°F-11.4°C -0.2°F-17.9°C 59% 1.0 mph NW1.6 kmh NW 4.0 mph6.4 kmh 30.73 in1040.6 mb 0.00 in0.0 mm 0.00 in/hr0.0 mm/hr 0.00 in0.0 mm
10:20 AM 10.8°F-11.8°C -1.1°F-18.4°C 58% 2.0 mph NW3.2 kmh NW 5.0 mph8.0 kmh 30.73 in1040.6 mb 0.00 in0.0 mm 0.00 in/hr0.0 mm/hr 0.00 in0.0 mm
10:10 AM 10.6°F-11.9°C -0.6°F-18.1°C 60% 1.0 mph NW1.6 kmh NW 3.0 mph4.8 kmh 30.73 in1040.6 mb 0.00 in0.0 mm 0.00 in/hr0.0 mm/hr 0.00 in0.0 mm
10:00 AM 10.2°F-12.1°C -0.6°F-18.1°C 61% 3.0 mph NW4.8 kmh NW 7.0 mph11.3 kmh 30.73 in1040.6 mb 0.00 in0.0 mm 0.00 in/hr0.0 mm/hr 0.00 in0.0 mm
09:50 AM 10.0°F-12.2°C -0.8°F-18.2°C 61% 1.0 mph NW1.6 kmh NW 6.0 mph9.7 kmh 30.73 in1040.6 mb 0.00 in0.0 mm 0.00 in/hr0.0 mm/hr 0.00 in0.0 mm
09:40 AM 10.0°F-12.2°C -0.8°F-18.2°C 61% 2.0 mph NW3.2 kmh NW 4.0 mph6.4 kmh 30.73 in1040.6 mb 0.00 in0.0 mm 0.00 in/hr0.0 mm/hr 0.00 in0.0 mm
09:30 AM 9.6°F-12.4°C -0.8°F-18.2°C 62% 1.0 mph NW1.6 kmh NW 4.0 mph6.4 kmh 30.73 in1040.6 mb 0.00 in0.0 mm 0.00 in/hr0.0 mm/hr 0.00 in0.0 mm
09:20 AM 9.5°F-12.5°C 0.1°F-17.7°C 65% 1.0 mph NW1.6 kmh NW 3.0 mph4.8 kmh 30.74 in1041.0 mb 0.00 in0.0 mm 0.00 in/hr0.0 mm/hr 0.00 in0.0 mm
09:10 AM 9.1°F-12.7°C -0.3°F-17.9°C 65% 1.0 mph NW1.6 kmh NW 3.0 mph4.8 kmh 30.74 in1041.0 mb 0.00 in0.0 mm 0.00 in/hr0.0 mm/hr 0.00 in0.0 mm
09:00 AM 8.3°F-13.2°C -0.7°F-18.2°C 66% 1.0 mph NW1.6 kmh NW 5.0 mph8.0 kmh 30.74 in1041.0 mb 0.00 in0.0 mm 0.00 in/hr0.0 mm/hr 0.00 in0.0 mm
08:50 AM 8.0°F-13.3°C -1.3°F-18.5°C 65% 1.0 mph NW1.6 kmh NW 5.0 mph8.0 kmh 30.75 in1041.3 mb 0.00 in0.0 mm 0.00 in/hr0.0 mm/hr 0.00 in0.0 mm
08:40 AM 7.7°F-13.5°C -1.3°F-18.5°C 66% 1.0 mph NW1.6 kmh NW 5.0 mph8.0 kmh 30.75 in1041.3 mb 0.00 in0.0 mm 0.00 in/hr0.0 mm/hr 0.00 in0.0 mm
08:30 AM 7.2°F-13.8°C -1.2°F-18.4°C 68% 1.0 mph NW1.6 kmh NW 4.0 mph6.4 kmh 30.74 in1041.0 mb 0.00 in0.0 mm 0.00 in/hr0.0 mm/hr 0.00 in0.0 mm
08:20 AM 6.5°F-14.2°C -1.5°F-18.6°C 69% 1.0 mph NW1.6 kmh NW 5.0 mph8.0 kmh 30.74 in1041.0 mb 0.00 in0.0 mm 0.00 in/hr0.0 mm/hr 0.00 in0.0 mm
08:10 AM 5.9°F-14.5°C -2.1°F-18.9°C 69% 1.0 mph NW1.6 kmh NW 5.0 mph8.0 kmh 30.74 in1041.0 mb 0.00 in0.0 mm 0.00 in/hr0.0 mm/hr 0.00 in0.0 mm
08:00 AM 5.9°F-14.5°C -1.8°F-18.8°C 70% 1.0 mph NW1.6 kmh NW 4.0 mph6.4 kmh 30.73 in1040.6 mb 0.00 in0.0 mm 0.00 in/hr0.0 mm/hr 0.00 in0.0 mm
07:50 AM 5.9°F-14.5°C -1.5°F-18.6°C 71% Calm Calm 2.0 mph3.2 kmh 30.72 in1040.3 mb 0.00 in0.0 mm 0.00 in/hr0.0 mm/hr 0.00 in0.0 mm
07:40 AM 5.0°F-15.0°C -1.8°F-18.8°C 73% Calm Calm 2.0 mph3.2 kmh 30.71 in1040.0 mb 0.00 in0.0 mm 0.00 in/hr0.0 mm/hr 0.00 in0.0 mm
07:30 AM 4.2°F-15.4°C -2.3°F-19.1°C 74% Calm Calm 2.0 mph3.2 kmh 30.71 in1040.0 mb 0.00 in0.0 mm 0.00 in/hr0.0 mm/hr 0.00 in0.0 mm
07:20 AM 3.9°F-15.6°C -2.3°F-19.1°C 75% Calm Calm 1.0 mph1.6 kmh 30.70 in1039.6 mb 0.00 in0.0 mm 0.00 in/hr0.0 mm/hr 0.00 in0.0 mm
07:10 AM 3.8°F-15.7°C -2.4°F-19.1°C 75% Calm Calm 1.0 mph1.6 kmh 30.70 in1039.6 mb 0.00 in0.0 mm 0.00 in/hr0.0 mm/hr 0.00 in0.0 mm
07:00 AM 3.7°F-15.7°C -2.5°F-19.2°C 75% Calm Calm 1.0 mph1.6 kmh 30.70 in1039.6 mb 0.00 in0.0 mm 0.00 in/hr0.0 mm/hr 0.00 in0.0 mm
06:50 AM 3.6°F-15.8°C -2.6°F-19.2°C 75% Calm Calm 1.0 mph1.6 kmh 30.70 in1039.6 mb 0.00 in0.0 mm 0.00 in/hr0.0 mm/hr 0.00 in0.0 mm
06:40 AM 3.6°F-15.8°C -2.8°F-19.3°C 74% Calm Calm 1.0 mph1.6 kmh 30.70 in1039.6 mb 0.00 in0.0 mm 0.00 in/hr0.0 mm/hr 0.00 in0.0 mm
06:30 AM 3.5°F-15.8°C -2.9°F-19.4°C 74% Calm Calm 1.0 mph1.6 kmh 30.70 in1039.6 mb 0.00 in0.0 mm 0.00 in/hr0.0 mm/hr 0.00 in0.0 mm
06:20 AM 3.5°F-15.8°C -2.9°F-19.4°C 74% Calm Calm 1.0 mph1.6 kmh 30.69 in1039.3 mb 0.00 in0.0 mm 0.00 in/hr0.0 mm/hr 0.00 in0.0 mm
06:10 AM 3.4°F-15.9°C -3.0°F-19.4°C 74% Calm Calm 1.0 mph1.6 kmh 30.68 in1038.9 mb 0.00 in0.0 mm 0.00 in/hr0.0 mm/hr 0.00 in0.0 mm
06:00 AM 3.6°F-15.8°C -3.1°F-19.5°C 73% Calm Calm 1.0 mph1.6 kmh 30.68 in1038.9 mb 0.00 in0.0 mm 0.00 in/hr0.0 mm/hr 0.00 in0.0 mm
05:50 AM 3.6°F-15.8°C -3.1°F-19.5°C 73% Calm Calm 1.0 mph1.6 kmh 30.68 in1038.9 mb 0.00 in0.0 mm 0.00 in/hr0.0 mm/hr 0.00 in0.0 mm
05:40 AM 3.8°F-15.7°C -3.2°F-19.6°C 72% Calm Calm 1.0 mph1.6 kmh 30.68 in1038.9 mb 0.00 in0.0 mm 0.00 in/hr0.0 mm/hr 0.00 in0.0 mm
05:30 AM 4.0°F-15.6°C -2.7°F-19.3°C 73% Calm Calm 1.0 mph1.6 kmh 30.67 in1038.6 mb 0.00 in0.0 mm 0.00 in/hr0.0 mm/hr 0.00 in0.0 mm
05:20 AM 4.1°F-15.5°C -2.9°F-19.4°C 72% Calm Calm 2.0 mph3.2 kmh 30.67 in1038.6 mb 0.00 in0.0 mm 0.00 in/hr0.0 mm/hr 0.00 in0.0 mm
05:10 AM 4.2°F-15.4°C -2.8°F-19.3°C 72% Calm Calm 1.0 mph1.6 kmh 30.67 in1038.6 mb 0.00 in0.0 mm 0.00 in/hr0.0 mm/hr 0.00 in0.0 mm
05:00 AM 4.5°F-15.3°C -2.8°F-19.3°C 71% Calm Calm 1.0 mph1.6 kmh 30.66 in1038.3 mb 0.00 in0.0 mm 0.00 in/hr0.0 mm/hr 0.00 in0.0 mm
04:50 AM 4.6°F-15.2°C -2.7°F-19.3°C 71% Calm Calm 1.0 mph1.6 kmh 30.65 in1037.9 mb 0.00 in0.0 mm 0.00 in/hr0.0 mm/hr 0.00 in0.0 mm
04:40 AM 4.7°F-15.2°C -2.6°F-19.2°C 71% Calm Calm 2.0 mph3.2 kmh 30.65 in1037.9 mb 0.00 in0.0 mm 0.00 in/hr0.0 mm/hr 0.00 in0.0 mm
04:30 AM 4.8°F-15.1°C -2.5°F-19.2°C 71% Calm Calm 2.0 mph3.2 kmh 30.65 in1037.9 mb 0.00 in0.0 mm 0.00 in/hr0.0 mm/hr 0.00 in0.0 mm
04:20 AM 4.9°F-15.1°C -2.7°F-19.3°C 70% Calm Calm 2.0 mph3.2 kmh 30.65 in1037.9 mb 0.00 in0.0 mm 0.00 in/hr0.0 mm/hr 0.00 in0.0 mm
04:10 AM 5.0°F-15.0°C -2.7°F-19.3°C 70% Calm Calm 2.0 mph3.2 kmh 30.64 in1037.6 mb 0.00 in0.0 mm 0.00 in/hr0.0 mm/hr 0.00 in0.0 mm
04:00 AM 5.1°F-14.9°C -2.6°F-19.2°C 70% Calm Calm 2.0 mph3.2 kmh 30.63 in1037.3 mb 0.00 in0.0 mm 0.00 in/hr0.0 mm/hr 0.00 in0.0 mm
03:50 AM 5.4°F-14.8°C -2.3°F-19.1°C 70% Calm Calm 2.0 mph3.2 kmh 30.63 in1037.3 mb 0.00 in0.0 mm 0.00 in/hr0.0 mm/hr 0.00 in0.0 mm
03:40 AM 5.5°F-14.7°C -2.2°F-19.0°C 70% Calm Calm 2.0 mph3.2 kmh 30.63 in1037.3 mb 0.00 in0.0 mm 0.00 in/hr0.0 mm/hr 0.00 in0.0 mm
03:30 AM 5.7°F-14.6°C -2.0°F-18.9°C 70% Calm Calm 2.0 mph3.2 kmh 30.62 in1036.9 mb 0.00 in0.0 mm 0.00 in/hr0.0 mm/hr 0.00 in0.0 mm
03:20 AM 5.8°F-14.6°C -2.2°F-19.0°C 69% 1.0 mph NW1.6 kmh NW 5.0 mph8.0 kmh 30.63 in1037.3 mb 0.00 in0.0 mm 0.00 in/hr0.0 mm/hr 0.00 in0.0 mm
03:10 AM 6.0°F-14.4°C -2.0°F-18.9°C 69% 1.0 mph NW1.6 kmh NW 4.0 mph6.4 kmh 30.62 in1036.9 mb 0.00 in0.0 mm 0.00 in/hr0.0 mm/hr 0.00 in0.0 mm
03:00 AM 6.2°F-14.3°C -1.5°F-18.6°C 70% Calm Calm 5.0 mph8.0 kmh 30.62 in1036.9 mb 0.00 in0.0 mm 0.00 in/hr0.0 mm/hr 0.00 in0.0 mm
02:50 AM 6.4°F-14.2°C -1.6°F-18.7°C 69% Calm Calm 3.0 mph4.8 kmh 30.62 in1036.9 mb 0.00 in0.0 mm 0.00 in/hr0.0 mm/hr 0.00 in0.0 mm
02:40 AM 6.5°F-14.2°C -1.5°F-18.6°C 69% 1.0 mph NW1.6 kmh NW 4.0 mph6.4 kmh 30.62 in1036.9 mb 0.00 in0.0 mm 0.00 in/hr0.0 mm/hr 0.00 in0.0 mm
02:30 AM 6.6°F-14.1°C -1.4°F-18.6°C 69% 1.0 mph NW1.6 kmh NW 4.0 mph6.4 kmh 30.62 in1036.9 mb 0.00 in0.0 mm 0.00 in/hr0.0 mm/hr 0.00 in0.0 mm
02:20 AM 6.8°F-14.0°C -1.2°F-18.4°C 69% 1.0 mph NW1.6 kmh NW 8.0 mph12.9 kmh 30.62 in1036.9 mb 0.00 in0.0 mm 0.00 in/hr0.0 mm/hr 0.00 in0.0 mm
02:10 AM 6.9°F-13.9°C -0.8°F-18.2°C 70% Calm Calm 3.0 mph4.8 kmh 30.62 in1036.9 mb 0.00 in0.0 mm 0.00 in/hr0.0 mm/hr 0.00 in0.0 mm
02:00 AM 7.2°F-13.8°C -0.5°F-18.1°C 70% 1.0 mph NW1.6 kmh NW 5.0 mph8.0 kmh 30.62 in1036.9 mb 0.00 in0.0 mm 0.00 in/hr0.0 mm/hr 0.00 in0.0 mm
01:50 AM 7.4°F-13.7°C -0.3°F-17.9°C 70% Calm Calm 2.0 mph3.2 kmh 30.62 in1036.9 mb 0.00 in0.0 mm 0.00 in/hr0.0 mm/hr 0.00 in0.0 mm
01:40 AM 7.5°F-13.6°C -0.2°F-17.9°C 70% 1.0 mph NW1.6 kmh NW 4.0 mph6.4 kmh 30.62 in1036.9 mb 0.00 in0.0 mm 0.00 in/hr0.0 mm/hr 0.00 in0.0 mm
01:30 AM 7.8°F-13.4°C 0.3°F-17.6°C 71% 1.0 mph NW1.6 kmh NW 4.0 mph6.4 kmh 30.62 in1036.9 mb 0.00 in0.0 mm 0.00 in/hr0.0 mm/hr 0.00 in0.0 mm
01:20 AM 8.1°F-13.3°C 0.3°F-17.6°C 70% 1.0 mph NW1.6 kmh NW 4.0 mph6.4 kmh 30.62 in1036.9 mb 0.00 in0.0 mm 0.00 in/hr0.0 mm/hr 0.00 in0.0 mm
01:10 AM 8.4°F-13.1°C 0.6°F-17.4°C 70% Calm Calm 4.0 mph6.4 kmh 30.61 in1036.6 mb 0.00 in0.0 mm 0.00 in/hr0.0 mm/hr 0.00 in0.0 mm
01:00 AM 8.6°F-13.0°C 0.5°F-17.5°C 69% 1.0 mph NW1.6 kmh NW 3.0 mph4.8 kmh 30.61 in1036.6 mb 0.00 in0.0 mm 0.00 in/hr0.0 mm/hr 0.00 in0.0 mm
12:50 AM 8.8°F-12.9°C 0.7°F-17.4°C 69% 1.0 mph NW1.6 kmh NW 4.0 mph6.4 kmh 30.60 in1036.2 mb 0.00 in0.0 mm 0.00 in/hr0.0 mm/hr 0.00 in0.0 mm
12:40 AM 9.0°F-12.8°C 0.6°F-17.4°C 68% 1.0 mph NW1.6 kmh NW 4.0 mph6.4 kmh 30.60 in1036.2 mb 0.00 in0.0 mm 0.00 in/hr0.0 mm/hr 0.00 in0.0 mm
12:30 AM 9.1°F-12.7°C 0.7°F-17.4°C 68% 1.0 mph NW1.6 kmh NW 4.0 mph6.4 kmh 30.60 in1036.2 mb 0.00 in0.0 mm 0.00 in/hr0.0 mm/hr 0.00 in0.0 mm
12:20 AM 9.3°F-12.6°C 0.5°F-17.5°C 67% 1.0 mph NW1.6 kmh NW 4.0 mph6.4 kmh 30.60 in1036.2 mb 0.00 in0.0 mm 0.00 in/hr0.0 mm/hr 0.00 in0.0 mm
12:10 AM 9.5°F-12.5°C 0.7°F-17.4°C 67% 1.0 mph NW1.6 kmh NW 3.0 mph4.8 kmh 30.60 in1036.2 mb 0.00 in0.0 mm 0.00 in/hr0.0 mm/hr 0.00 in0.0 mm
12:00 AM 9.8°F-12.3°C 1.0°F-17.2°C 67% 1.0 mph NW1.6 kmh NW 2.0 mph3.2 kmh 30.59 in1035.9 mb 0.00 in0.0 mm 0.00 in/hr0.0 mm/hr 0.00 in0.0 mm